Time;durP1;ratioP1;P1;durP2;ratioP2;P2;SDS_P1;SDS_P2;PMS_P1;PMS_P2;Temp;Humidity;BMP_temperature;BMP_pressure;BME280_temperature;BME280_humidity;BME280_pressure;Samples;Min_cycle;Max_cycle;Signal;HPM_P1;HPM_P2
2021/12/13 00:00:25;;;;;;;;;;;;;;;;;;4985275;28;19917;-75
2021/12/13 00:02:51;;;;;;;;;;;;;;;;;;4988282;28;19964;-75
2021/12/13 00:05:17;;;;;;;;;;;;;;;;;;4992066;28;19913;-76
2021/12/13 00:07:43;;;;;;;;;;;;;;;;;;4981071;28;20005;-75
2021/12/13 00:10:09;;;;;;;;;;;;;;;;;;4985943;28;19910;-75
2021/12/13 00:12:35;;;;;;;;;;;;;;;;;;4998308;28;19941;-75
2021/12/13 00:15:00;;;;;;;;;;;;;;;;;;4986090;28;19910;-75
2021/12/13 00:17:26;;;;;;;;;;;;;;;;;;4988073;28;19945;-77
2021/12/13 00:19:55;;;;;;;;;;;;;;;;;;4992217;28;20362;-75
2021/12/13 00:22:21;;;;;;;;;;;;;;;;;;4992193;28;19909;-75
2021/12/13 00:24:47;;;;;;;;;;;;;;;;;;4993951;28;19983;-75
2021/12/13 00:27:13;;;;;;;;;;;;;;;;;;4990809;28;19957;-76
2021/12/13 00:29:39;;;;;;;;;;;;;;;;;;4993699;28;19965;-75
2021/12/13 00:32:04;;;;;;;;;;;;;;;;;;4987865;28;19980;-75
2021/12/13 00:34:30;;;;;;;;;;;;;;;;;;4991655;28;19953;-75
2021/12/13 00:36:56;;;;;;;;;;;;;;;;;;4992445;28;19957;-76
2021/12/13 00:39:22;;;;;;;;;;;;;;;;;;4986748;28;19987;-75
2021/12/13 00:41:48;;;;;;;;;;;;;;;;;;5004620;28;19953;-75
2021/12/13 00:44:14;;;;;;;;;;;;;;;;;;4988432;28;19941;-79
2021/12/13 00:46:40;;;;;;;;;;;;;;;;;;4985038;28;19971;-75
2021/12/13 00:49:06;;;;;;;;;;;;;;;;;;4982864;28;19918;-75
2021/12/13 00:51:32;;;;;;;;;;;;;;;;;;4991132;28;19976;-76
2021/12/13 00:53:58;;;;;;;;;;;;;;;;;;5002432;28;19943;-75
2021/12/13 00:56:24;;;;;;;;;;;;;;;;;;4987657;28;19945;-76
2021/12/13 00:58:50;;;;;;;;;;;;;;;;;;4989559;28;19946;-75
2021/12/13 01:01:16;;;;;;;;;;;;;;;;;;4992122;28;20389;-76
2021/12/13 01:03:42;;;;;;;;;;;;;;;;;;4987867;28;19910;-75
2021/12/13 01:06:09;;;;;;;;;;;;;;;;;;4985674;28;20005;-75
2021/12/13 01:08:38;;;;;;;;;;;;;;;;;;4990357;28;19914;-75
2021/12/13 01:11:05;;;;;;;;;;;;;;;;;;4991029;28;20413;-75
2021/12/13 01:13:31;;;;;;;;;;;;;;;;;;4990563;28;20432;-76
2021/12/13 01:15:58;;;;;;;;;;;;;;;;;;4984435;28;19945;-74
2021/12/13 01:18:30;;;;;;;;;;;;;;;;;;4982327;28;19910;-74
2021/12/13 01:21:03;;;;;;;;;;;;;;;;;;4985317;28;19914;-74
2021/12/13 01:23:44;;;;;;;;;;;;;;;;;;4983749;28;19960;-76
2021/12/13 01:26:36;;;;;;;;;;;;;;;;;;4982296;28;19941;-74
2021/12/13 01:28:59;;;;;;;;;;;;;;;;;;4981929;28;19914;-75
2021/12/13 01:31:25;;;;;;;;;;;;;;;;;;4998994;28;19956;-75
2021/12/13 01:33:51;;;;;;;;;;;;;;;;;;4991173;28;20063;-75
2021/12/13 01:36:19;;;;;;;;;;;;;;;;;;4991366;28;19967;-76
2021/12/13 01:38:47;;;;;;;;;;;;;;;;;;4978151;28;19918;-75
2021/12/13 01:41:14;;;;;;;;;;;;;;;;;;4987070;28;19916;-74
2021/12/13 01:43:40;;;;;;;;;;;;;;;;;;5000872;28;19910;-75
2021/12/13 01:46:06;;;;;;;;;;;;;;;;;;4989655;28;19953;-74
2021/12/13 01:48:32;;;;;;;;;;;;;;;;;;4989562;28;19948;-75
2021/12/13 01:51:05;;;;;;;;;;;;;;;;;;4989089;28;21635;-75
2021/12/13 01:53:31;;;;;;;;;;;;;;;;;;4988747;28;19909;-75
2021/12/13 01:55:56;;;;;;;;;;;;;;;;;;5003949;28;19917;-75
2021/12/13 02:01:11;;;;;;;;;;;;;;;;;;4991208;28;19910;-75
2021/12/13 02:03:48;;;;;;;;;;;;;;;;;;4988226;28;19964;-75
2021/12/13 02:06:15;;;;;;;;;;;;;;;;;;4989397;28;19910;-75
2021/12/13 02:08:58;;;;;;;;;;;;;;;;;;4987838;28;19914;-76
2021/12/13 02:11:24;;;;;;;;;;;;;;;;;;4989017;28;19917;-75
2021/12/13 02:14:05;;;;;;;;;;;;;;;;;;4988905;28;20003;-75
2021/12/13 02:19:16;;;;;;;;;;;;;;;;;;4986093;28;20316;-75
2021/12/13 02:22:05;;;;;;;;;;;;;;;;;;4984242;28;25120;-75
2021/12/13 02:24:38;;;;;;;;;;;;;;;;;;4984150;28;19910;-75
2021/12/13 02:27:24;;;;;;;;;;;;;;;;;;4984637;28;20318;-75
2021/12/13 02:29:50;;;;;;;;;;;;;;;;;;4983621;28;19937;-75
2021/12/13 02:32:16;;;;;;;;;;;;;;;;;;4992491;28;19985;-76
2021/12/13 02:34:43;;;;;;;;;;;;;;;;;;4988037;28;19917;-75
2021/12/13 02:37:12;;;;;;;;;;;;;;;;;;4985701;28;19910;-74
2021/12/13 02:39:53;;;;;;;;;;;;;;;;;;4992764;28;19952;-75
2021/12/13 02:42:36;;;;;;;;;;;;;;;;;;4985577;28;19909;-75
2021/12/13 02:45:17;;;;;;;;;;;;;;;;;;4992696;28;20429;-75
2021/12/13 02:47:52;;;;;;;;;;;;;;;;;;5000736;28;19920;-75
2021/12/13 02:53:13;;;;;;;;;;;;;;;;;;4985271;28;19917;-74
2021/12/13 02:56:05;;;;;;;;;;;;;;;;;;4992266;28;20381;-74
2021/12/13 02:58:33;;;;;;;;;;;;;;;;;;4984595;28;19944;-75
2021/12/13 03:01:01;;;;;;;;;;;;;;;;;;4989333;28;20091;-76
2021/12/13 03:03:33;;;;;;;;;;;;;;;;;;4988717;28;20425;-75
2021/12/13 03:06:10;;;;;;;479.90;292.75;;;;;;;;;;4980972;28;19913;-75
2021/12/13 03:08:59;;;;;;;473.38;268.10;;;;;;;;;;4987230;28;20031;-75
2021/12/13 03:11:41;;;;;;;471.85;268.92;;;;;;;;;;4973229;28;20031;-76
2021/12/13 03:14:45;;;;;;;467.80;270.90;;;;;;;;;;4989197;28;20030;-75
2021/12/13 03:17:41;;;;;;;473.65;282.08;;;;;;;;;;4991283;28;25074;-75
2021/12/13 03:23:49;;;;;;;470.35;272.85;;;;;;;;;;4986825;28;20069;-75
2021/12/13 03:29:58;;;;;;;464.95;261.35;;;;;;;;;;4989561;28;20552;-75
2021/12/13 03:32:51;;;;;;;473.80;273.65;;;;;;;;;;4974878;28;20031;-75
2021/12/13 03:35:56;;;;;;;477.17;269.27;;;;;;;;;;4989745;28;20038;-75
2021/12/13 03:41:59;;;;;;;479.98;273.00;;;;;;;;;;4989573;28;20076;-75
2021/12/13 03:44:55;;;;;;;474.98;270.35;;;;;;;;;;4952705;28;20098;-75
2021/12/13 03:50:55;;;;;;;474.23;277.77;;;;;;;;;;4922088;29;20602;-75
2021/12/13 03:53:55;;;;;;;478.45;280.55;;;;;;;;;;4922483;29;20048;-75
2021/12/13 03:59:36;;;;;;;471.60;281.40;;;;;;;;;;4922656;29;20078;-75
2021/12/13 04:02:42;;;;;;;474.08;277.10;;;;;;;;;;4916224;29;20024;-74
2021/12/13 04:08:54;;;;;;;474.35;288.20;;;;;;;;;;4908544;29;20544;-75
2021/12/13 04:11:41;;;;;;;;;;;;;;;;;;4905305;29;20119;-75
2021/12/13 04:26:27;;;;;;;;;;;;;;;;;;4920959;29;19941;-75
2021/12/13 04:31:43;;;;;;;;;;;;;;;;;;4917939;29;19918;-75
2021/12/13 04:34:27;;;;;;;;;;;;;;;;;;4927882;29;19910;-75
2021/12/13 04:42:57;;;;;;;;;;;;;;;;;;4931307;29;19914;-75
2021/12/13 04:45:37;;;;;;;;;;;;;;;;;;4912875;29;19911;-76
2021/12/13 04:48:03;;;;;;;;;;;;;;;;;;4919495;29;19918;-76
2021/12/13 04:50:33;;;;;;;;;;;;;;;;;;4943790;29;19914;-75
2021/12/13 04:53:07;;;;;;;;;;;;;;;;;;4950126;29;19937;-76
2021/12/13 04:55:35;;;;;;;;;;;;;;;;;;4951151;28;19910;-76
2021/12/13 04:58:22;;;;;;;;;;;;;;;;;;4959797;28;19992;-77
2021/12/13 05:00:48;;;;;;;;;;;;;;;;;;4969989;28;19997;-77
2021/12/13 05:05:59;;;;;;;;;;;;;;;;;;4983408;28;19985;-78
2021/12/13 05:08:26;;;;;;;;;;;;;;;;;;4987105;28;19991;-76
2021/12/13 05:10:53;;;;;;;;;;;;;;;;;;4995427;28;20414;-76
2021/12/13 05:13:19;;;;;;;;;;;;;;;;;;4996929;28;20000;-75
2021/12/13 05:15:48;;;;;;;;;;;;;;;;;;4988580;28;20016;-75
2021/12/13 05:18:17;;;;;;;;;;;;;;;;;;4993899;28;19909;-75
2021/12/13 05:20:43;;;;;;;;;;;;;;;;;;5002255;28;19992;-76
2021/12/13 05:23:09;;;;;;;;;;;;;;;;;;4989923;28;19997;-75
2021/12/13 05:25:35;;;;;;;;;;;;;;;;;;4986496;28;19961;-76
2021/12/13 05:28:03;;;;;;;;;;;;;;;;;;4984316;28;19921;-76
2021/12/13 05:30:59;;;;;;;496.15;314.70;;;;;;;;;;4988721;28;20493;-76
2021/12/13 05:33:41;;;;;;;459.60;267.42;;;;;;;;;;4989565;28;20038;-75
2021/12/13 05:36:33;;;;;;;459.15;265.25;;;;;;;;;;4979247;28;20029;-76
2021/12/13 05:39:01;;;;;;;;;;;;;;;;;;4970815;28;20038;-75
2021/12/13 05:41:27;;;;;;;;;;;;;;;;;;4979294;28;19914;-76
2021/12/13 05:44:28;;;;;;;;;;;;;;;;;;4980367;28;19917;-76
2021/12/13 05:47:17;;;;;;;;;;;;;;;;;;4993097;28;20390;-76
2021/12/13 05:49:43;;;;;;;;;;;;;;;;;;4986228;28;19909;-77
2021/12/13 05:52:16;;;;;;;;;;;;;;;;;;4980173;28;19920;-76
2021/12/13 05:55:02;;;;;;;;;;;;;;;;;;4992849;28;19910;-75
2021/12/13 05:57:47;;;;;;;;;;;;;;;;;;4976389;28;19918;-75
2021/12/13 06:00:42;;;;;;;;;;;;;;;;;;4989718;28;19925;-75
2021/12/13 06:03:44;;;;;;;;;;;;;;;;;;4987191;28;19914;-75
2021/12/13 06:12:01;;;;;;;;;;;;;;;;;;5020366;28;24046;-75
2021/12/13 06:14:27;;;;;;;;;;;;;;;;;;5009101;28;19947;-74
2021/12/13 06:17:44;;;;;;;453.55;263.55;;;;;;;;;;5004650;28;19939;-76
2021/12/13 06:20:29;;;;;;;;;;;;;;;;;;5027251;28;19924;-76
2021/12/13 06:23:16;;;;;;;457.20;263.50;;;;;;;;;;5012892;28;25067;-75
2021/12/13 06:33:26;;;;;;;451.93;242.70;;;;;;;;;;5121586;22;20049;-75
2021/12/13 06:36:01;;;;;;;454.90;244.25;;;;;;;;;;5031007;28;20228;-75
2021/12/13 06:38:33;;;;;;;460.30;258.00;;;;;;;;;;5014826;28;20026;-76
2021/12/13 06:40:59;;;;;;;;;;;;;;;;;;5019060;28;20229;-75
2021/12/13 06:43:25;;;;;;;;;;;;;;;;;;5025323;28;20082;-75
2021/12/13 06:45:51;;;;;;;;;;;;;;;;;;5028823;28;20027;-75
2021/12/13 06:48:17;;;;;;;;;;;;;;;;;;5020396;28;19955;-75
2021/12/13 06:50:43;;;;;;;;;;;;;;;;;;5030863;28;24063;-75
2021/12/13 06:53:09;;;;;;;;;;;;;;;;;;5034193;28;20012;-75
2021/12/13 06:55:35;;;;;;;;;;;;;;;;;;5032478;28;19944;-76
2021/12/13 06:58:03;;;;;;;;;;;;;;;;;;5028521;28;19951;-75
2021/12/13 07:00:30;;;;;;;;;;;;;;;;;;5031120;28;19986;-76
2021/12/13 07:02:56;;;;;;;;;;;;;;;;;;5033004;28;19915;-76
2021/12/13 07:05:22;;;;;;;;;;;;;;;;;;5023695;28;20364;-76
2021/12/13 07:07:48;;;;;;;;;;;;;;;;;;5027392;28;20005;-77
2021/12/13 07:10:14;;;;;;;;;;;;;;;;;;5024759;28;19908;-76
2021/12/13 07:12:40;;;;;;;;;;;;;;;;;;5017842;28;20409;-76
2021/12/13 07:15:06;;;;;;;;;;;;;;;;;;5028082;28;20386;-76
2021/12/13 07:17:33;;;;;;;;;;;;;;;;;;5019449;28;20407;-76
2021/12/13 07:19:59;;;;;;;;;;;;;;;;;;5027757;28;20019;-76
2021/12/13 07:22:25;;;;;;;;;;;;;;;;;;5018168;28;20007;-76
2021/12/13 07:24:51;;;;;;;;;;;;;;;;;;5026523;28;19998;-76
2021/12/13 07:27:17;;;;;;;;;;;;;;;;;;5018554;28;19937;-71
2021/12/13 07:29:43;;;;;;;;;;;;;;;;;;5023817;28;20452;-71
2021/12/13 07:32:09;;;;;;;;;;;;;;;;;;5024386;28;19960;-71
2021/12/13 07:34:35;;;;;;;;;;;;;;;;;;5022197;28;19971;-71
2021/12/13 07:37:00;;;;;;;;;;;;;;;;;;5031472;28;19948;-71
2021/12/13 07:39:26;;;;;;;;;;;;;;;;;;5017587;28;19955;-71
2021/12/13 07:41:52;;;;;;;;;;;;;;;;;;5019762;28;19960;-71
2021/12/13 07:44:19;;;;;;;;;;;;;;;;;;5029142;28;19959;-72
2021/12/13 07:46:45;;;;;;;;;;;;;;;;;;5029700;28;19956;-71
2021/12/13 07:49:11;;;;;;;;;;;;;;;;;;5018758;28;19953;-71
2021/12/13 07:51:37;;;;;;;;;;;;;;;;;;5027156;28;19956;-71
2021/12/13 07:54:03;;;;;;;;;;;;;;;;;;5018260;28;20024;-71
2021/12/13 07:56:29;;;;;;;;;;;;;;;;;;5029143;28;19947;-71
2021/12/13 07:58:55;;;;;;;;;;;;;;;;;;5023454;28;19909;-71
2021/12/13 08:01:21;;;;;;;;;;;;;;;;;;5031717;28;19994;-71
2021/12/13 08:03:47;;;;;;;;;;;;;;;;;;5027839;28;20006;-71
2021/12/13 08:06:13;;;;;;;;;;;;;;;;;;5029797;28;19968;-71
2021/12/13 08:08:39;;;;;;;;;;;;;;;;;;5022755;28;19948;-71
2021/12/13 08:11:04;;;;;;;;;;;;;;;;;;5029636;28;19951;-71
2021/12/13 08:13:30;;;;;;;;;;;;;;;;;;5018470;28;19971;-71
2021/12/13 08:15:56;;;;;;;;;;;;;;;;;;5024769;28;19955;-71
2021/12/13 08:18:22;;;;;;;;;;;;;;;;;;5026412;28;19956;-71
2021/12/13 08:20:48;;;;;;;;;;;;;;;;;;5016191;28;19940;-71
2021/12/13 08:23:14;;;;;;;;;;;;;;;;;;5029994;28;19909;-71
2021/12/13 08:25:40;;;;;;;;;;;;;;;;;;5027238;28;19957;-71
2021/12/13 08:28:06;;;;;;;;;;;;;;;;;;5013149;28;19955;-71
2021/12/13 08:30:32;;;;;;;;;;;;;;;;;;5025145;28;19928;-71
2021/12/13 08:32:58;;;;;;;;;;;;;;;;;;5026322;28;20354;-71
2021/12/13 08:35:24;;;;;;;;;;;;;;;;;;5015010;28;19952;-71
2021/12/13 08:37:50;;;;;;;;;;;;;;;;;;5017162;28;19995;-71
2021/12/13 08:40:16;;;;;;;;;;;;;;;;;;5024320;28;24062;-71
2021/12/13 08:42:42;;;;;;;;;;;;;;;;;;5027408;28;19965;-71
2021/12/13 08:45:08;;;;;;;;;;;;;;;;;;5017640;28;19952;-71
2021/12/13 08:47:33;;;;;;;;;;;;;;;;;;5025444;28;20363;-71
2021/12/13 08:49:59;;;;;;;;;;;;;;;;;;5026782;28;20003;-71
2021/12/13 08:52:25;;;;;;;;;;;;;;;;;;5028744;28;19909;-71
2021/12/13 08:54:51;;;;;;;;;;;;;;;;;;5023966;28;20437;-71
2021/12/13 08:57:17;;;;;;;;;;;;;;;;;;5018906;28;19957;-71
2021/12/13 08:59:43;;;;;;;;;;;;;;;;;;5027234;28;24093;-71
2021/12/13 09:02:09;;;;;;;;;;;;;;;;;;5020221;28;19951;-71
2021/12/13 09:04:35;;;;;;;;;;;;;;;;;;5027715;28;19963;-71
2021/12/13 09:07:01;;;;;;;;;;;;;;;;;;5017235;28;19952;-71
2021/12/13 09:09:27;;;;;;;;;;;;;;;;;;5019787;28;19953;-71
2021/12/13 09:11:58;;;;;;;;;;;;;;;;;;5023392;28;19963;-71
2021/12/13 09:14:24;;;;;;;;;;;;;;;;;;5028219;28;20363;-71
2021/12/13 09:16:56;;;;;;;;;;;;;;;;;;5020262;28;19909;-71
2021/12/13 09:19:22;;;;;;;;;;;;;;;;;;5025600;28;19909;-71
2021/12/13 09:21:48;;;;;;;;;;;;;;;;;;5027313;28;19909;-71
2021/12/13 09:24:14;;;;;;;;;;;;;;;;;;5029935;28;19913;-71
2021/12/13 09:26:39;;;;;;;;;;;;;;;;;;5033780;28;19960;-71
2021/12/13 09:29:06;;;;;;;;;;;;;;;;;;5023930;28;20186;-71
2021/12/13 09:31:33;;;;;;;;;;;;;;;;;;5027852;28;19952;-71
2021/12/13 09:33:59;;;;;;;;;;;;;;;;;;5024209;28;19920;-71
2021/12/13 09:36:26;;;;;;;;;;;;;;;;;;5026961;28;19919;-71
2021/12/13 09:38:52;;;;;;;;;;;;;;;;;;5023750;28;19915;-71
2021/12/13 09:41:18;;;;;;;;;;;;;;;;;;5021206;28;19958;-71
2021/12/13 09:43:45;;;;;;;;;;;;;;;;;;5025578;28;19916;-72
2021/12/13 09:46:11;;;;;;;;;;;;;;;;;;5021243;28;19908;-71
2021/12/13 09:48:37;;;;;;;;;;;;;;;;;;5018644;28;19964;-71
2021/12/13 09:51:03;;;;;;;;;;;;;;;;;;5030601;28;19963;-70
2021/12/13 09:53:31;;;;;;;;;;;;;;;;;;5027835;28;19955;-70
2021/12/13 09:55:57;;;;;;;;;;;;;;;;;;5023532;28;19913;-70
2021/12/13 09:58:23;;;;;;;;;;;;;;;;;;5018497;28;19967;-70
2021/12/13 10:00:49;;;;;;;;;;;;;;;;;;5029108;28;20417;-71
2021/12/13 10:03:15;;;;;;;;;;;;;;;;;;5021871;28;20391;-70
2021/12/13 10:05:41;;;;;;;;;;;;;;;;;;5022928;28;24064;-70
2021/12/13 10:08:07;;;;;;;;;;;;;;;;;;5019439;28;20417;-70
2021/12/13 10:10:34;;;;;;;;;;;;;;;;;;5026877;28;20493;-70
2021/12/13 10:13:00;;;;;;;;;;;;;;;;;;5024223;28;19924;-71
2021/12/13 10:15:26;;;;;;;;;;;;;;;;;;5027622;28;19936;-70
2021/12/13 10:17:52;;;;;;;;;;;;;;;;;;5026187;28;19932;-70
2021/12/13 10:20:18;;;;;;;;;;;;;;;;;;5025481;28;19908;-70
2021/12/13 10:22:44;;;;;;;;;;;;;;;;;;5031375;28;19909;-71
2021/12/13 10:25:10;;;;;;;;;;;;;;;;;;5033399;28;19920;-71
2021/12/13 10:27:36;;;;;;;;;;;;;;;;;;5028089;28;19952;-70
2021/12/13 10:30:02;;;;;;;;;;;;;;;;;;5027578;28;20000;-71
2021/12/13 10:32:28;;;;;;;;;;;;;;;;;;5026254;28;20369;-70
2021/12/13 10:34:54;;;;;;;;;;;;;;;;;;5019399;28;20001;-71
2021/12/13 10:37:20;;;;;;;;;;;;;;;;;;5020920;28;19948;-71
2021/12/13 10:39:46;;;;;;;;;;;;;;;;;;5026409;28;19944;-71
2021/12/13 10:42:12;;;;;;;;;;;;;;;;;;5024615;28;19909;-71
2021/12/13 10:44:43;;;;;;;;;;;;;;;;;;5028506;28;19955;-70
2021/12/13 10:47:09;;;;;;;;;;;;;;;;;;5026441;28;19944;-71
2021/12/13 10:49:35;;;;;;;;;;;;;;;;;;5028623;28;19940;-71
2021/12/13 10:52:01;;;;;;;;;;;;;;;;;;5025917;28;20006;-71
2021/12/13 10:54:27;;;;;;;;;;;;;;;;;;5022088;28;20015;-71
2021/12/13 10:56:54;;;;;;;;;;;;;;;;;;5031148;28;20023;-71
2021/12/13 10:59:19;;;;;;;;;;;;;;;;;;5024012;28;19909;-71
2021/12/13 11:01:45;;;;;;;;;;;;;;;;;;5025131;28;19951;-70
2021/12/13 11:04:11;;;;;;;;;;;;;;;;;;5019284;28;19949;-71
2021/12/13 11:06:37;;;;;;;;;;;;;;;;;;5020081;28;19944;-71
2021/12/13 11:09:03;;;;;;;;;;;;;;;;;;5020396;28;19944;-71
2021/12/13 11:11:29;;;;;;;;;;;;;;;;;;5021421;28;19957;-70
2021/12/13 11:13:55;;;;;;;;;;;;;;;;;;5020023;28;19968;-71
2021/12/13 11:16:21;;;;;;;;;;;;;;;;;;5016308;28;20052;-71
2021/12/13 11:18:47;;;;;;;;;;;;;;;;;;5021122;28;19987;-71
2021/12/13 11:21:13;;;;;;;;;;;;;;;;;;5019206;28;19916;-71
2021/12/13 11:23:39;;;;;;;;;;;;;;;;;;5017614;28;19958;-71
2021/12/13 11:26:05;;;;;;;;;;;;;;;;;;5036092;28;20010;-71
2021/12/13 11:28:32;;;;;;;;;;;;;;;;;;5015767;28;19972;-71
2021/12/13 11:30:58;;;;;;;;;;;;;;;;;;5021750;28;20004;-70
2021/12/13 11:33:24;;;;;;;;;;;;;;;;;;5014785;28;20015;-71
2021/12/13 11:35:50;;;;;;;;;;;;;;;;;;5017248;28;19945;-71
2021/12/13 11:38:17;;;;;;;;;;;;;;;;;;5015809;28;20311;-71
2021/12/13 11:40:43;;;;;;;;;;;;;;;;;;5019589;28;19909;-71
2021/12/13 11:43:09;;;;;;;;;;;;;;;;;;5035881;28;20019;-71
2021/12/13 11:45:35;;;;;;;;;;;;;;;;;;5019135;28;20010;-71
2021/12/13 11:48:01;;;;;;;;;;;;;;;;;;5016520;28;19960;-71
2021/12/13 11:50:27;;;;;;;;;;;;;;;;;;5018681;28;19948;-71
2021/12/13 11:52:53;;;;;;;;;;;;;;;;;;5015962;28;19959;-72
2021/12/13 11:55:19;;;;;;;;;;;;;;;;;;5017169;28;19974;-71
2021/12/13 11:57:45;;;;;;;;;;;;;;;;;;5015261;28;19962;-71
2021/12/13 12:00:11;;;;;;;;;;;;;;;;;;5017957;28;19917;-71
2021/12/13 12:02:37;;;;;;;;;;;;;;;;;;5017467;28;19948;-71
2021/12/13 12:05:05;;;;;;;;;;;;;;;;;;5027176;28;19953;-71
2021/12/13 12:07:31;;;;;;;;;;;;;;;;;;5018543;28;20401;-71
2021/12/13 12:09:57;;;;;;;;;;;;;;;;;;5024997;28;19944;-71
2021/12/13 12:12:23;;;;;;;;;;;;;;;;;;5028979;28;19948;-71
2021/12/13 12:14:49;;;;;;;;;;;;;;;;;;5028087;28;19910;-71
2021/12/13 12:17:15;;;;;;;;;;;;;;;;;;5025006;28;20345;-71
2021/12/13 12:19:41;;;;;;;;;;;;;;;;;;5025859;28;19940;-71
2021/12/13 12:22:07;;;;;;;;;;;;;;;;;;5030013;28;19960;-71
2021/12/13 12:24:33;;;;;;;;;;;;;;;;;;5030892;28;20420;-71
2021/12/13 12:26:59;;;;;;;;;;;;;;;;;;5019245;28;20297;-71
2021/12/13 12:29:25;;;;;;;;;;;;;;;;;;5026782;28;19967;-71
2021/12/13 12:31:51;;;;;;;;;;;;;;;;;;5030069;28;19915;-72
2021/12/13 12:34:17;;;;;;;;;;;;;;;;;;5031149;28;19963;-71
2021/12/13 12:36:43;;;;;;;;;;;;;;;;;;5028511;28;19955;-71
2021/12/13 12:39:09;;;;;;;;;;;;;;;;;;5025007;28;19909;-71
2021/12/13 12:41:35;;;;;;;;;;;;;;;;;;5022769;28;19957;-71
2021/12/13 12:44:01;;;;;;;;;;;;;;;;;;5029339;28;19952;-71
2021/12/13 12:46:30;;;;;;;;;;;;;;;;;;5022402;28;19913;-71
2021/12/13 12:49:01;;;;;;;;;;;;;;;;;;5026757;28;19923;-71
2021/12/13 12:51:27;;;;;;;;;;;;;;;;;;5022841;28;20370;-71
2021/12/13 12:53:53;;;;;;;;;;;;;;;;;;5029003;28;20002;-71
2021/12/13 12:56:19;;;;;;;;;;;;;;;;;;5027493;28;19956;-71
2021/12/13 12:58:45;;;;;;;;;;;;;;;;;;5027004;28;20427;-71
2021/12/13 13:01:11;;;;;;;;;;;;;;;;;;5024915;28;20449;-71
2021/12/13 13:03:37;;;;;;;;;;;;;;;;;;5028740;28;20461;-71
2021/12/13 13:06:03;;;;;;;;;;;;;;;;;;5031320;28;20402;-71
2021/12/13 13:08:29;;;;;;;;;;;;;;;;;;5021792;28;19924;-71
2021/12/13 13:11:20;;;;;;;;;;;;;;;;;;5021784;28;20025;-71
2021/12/13 13:13:41;;;;;;;;;;;;;;;;;;5025040;28;19920;-71
2021/12/13 13:16:06;;;;;;;;;;;;;;;;;;5027985;28;19992;-71
2021/12/13 13:18:32;;;;;;;;;;;;;;;;;;5018431;28;25155;-71
2021/12/13 13:20:58;;;;;;;;;;;;;;;;;;5024893;28;19960;-71
2021/12/13 13:23:24;;;;;;;;;;;;;;;;;;5020852;28;19998;-71
2021/12/13 13:25:50;;;;;;;;;;;;;;;;;;5016847;28;20292;-71
2021/12/13 13:28:16;;;;;;;;;;;;;;;;;;5017313;28;19971;-71
2021/12/13 13:30:42;;;;;;;;;;;;;;;;;;5019872;28;19920;-71
2021/12/13 13:33:10;;;;;;;;;;;;;;;;;;5023684;28;24113;-71
2021/12/13 13:35:35;;;;;;;;;;;;;;;;;;5021097;28;20371;-71
2021/12/13 13:38:01;;;;;;;;;;;;;;;;;;5031117;28;19958;-71
2021/12/13 13:40:27;;;;;;;;;;;;;;;;;;5023900;28;19955;-71
2021/12/13 13:42:53;;;;;;;;;;;;;;;;;;5017783;28;19936;-71
2021/12/13 13:45:19;;;;;;;;;;;;;;;;;;5021629;28;20338;-71
2021/12/13 13:47:45;;;;;;;;;;;;;;;;;;5012744;28;19943;-71
2021/12/13 13:50:11;;;;;;;;;;;;;;;;;;5024079;28;20322;-72
2021/12/13 13:52:37;;;;;;;;;;;;;;;;;;5020525;28;20358;-71
2021/12/13 13:55:03;;;;;;;;;;;;;;;;;;5036225;28;20335;-72
2021/12/13 13:57:29;;;;;;;;;;;;;;;;;;5030322;28;20375;-72
2021/12/13 13:59:55;;;;;;;;;;;;;;;;;;5028650;28;20402;-72
2021/12/13 14:02:21;;;;;;;;;;;;;;;;;;5027474;28;20381;-73
2021/12/13 14:04:50;;;;;;;;;;;;;;;;;;5031338;28;19979;-72
2021/12/13 14:07:16;;;;;;;;;;;;;;;;;;5029193;28;20286;-72
2021/12/13 14:09:42;;;;;;;;;;;;;;;;;;5024321;28;19999;-72
2021/12/13 14:12:08;;;;;;;;;;;;;;;;;;5036017;28;20391;-72
2021/12/13 14:14:34;;;;;;;;;;;;;;;;;;5027374;28;20414;-71
2021/12/13 14:16:59;;;;;;;;;;;;;;;;;;5035051;28;19941;-72
2021/12/13 14:19:25;;;;;;;;;;;;;;;;;;5027913;28;19967;-72
2021/12/13 14:21:51;;;;;;;;;;;;;;;;;;5022676;28;19966;-72
2021/12/13 14:24:17;;;;;;;;;;;;;;;;;;5032490;28;19955;-72
2021/12/13 14:26:43;;;;;;;;;;;;;;;;;;5032911;28;19977;-72
2021/12/13 14:29:10;;;;;;;;;;;;;;;;;;5034302;28;19924;-71
2021/12/13 14:31:36;;;;;;;;;;;;;;;;;;5030731;28;19996;-72
2021/12/13 14:34:02;;;;;;;;;;;;;;;;;;5021008;28;20515;-72
2021/12/13 14:36:30;;;;;;;;;;;;;;;;;;5023882;28;20015;-71
2021/12/13 14:38:56;;;;;;;;;;;;;;;;;;5022560;28;19913;-72
2021/12/13 14:41:22;;;;;;;;;;;;;;;;;;5017116;28;19982;-72
2021/12/13 14:43:48;;;;;;;;;;;;;;;;;;5016891;28;19916;-72
2021/12/13 14:46:15;;;;;;;;;;;;;;;;;;5031765;28;19945;-71
2021/12/13 14:48:41;;;;;;;;;;;;;;;;;;5015222;28;25132;-71
2021/12/13 14:56:14;;;;;;;;;;;;;;;;;;5000984;28;20346;-75
2021/12/13 14:58:48;;;;;;;;;;;;;;;;;;5005193;28;20398;-75
2021/12/13 15:01:15;;;;;;;;;;;;;;;;;;5006696;28;19916;-74
2021/12/13 15:06:44;;;;;;;;;;;;;;;;;;5005156;28;20327;-74
2021/12/13 15:09:33;;;;;;;;;;;;;;;;;;5001827;28;20367;-75
2021/12/13 15:12:12;;;;;;;;;;;;;;;;;;4999908;28;25090;-75
2021/12/13 15:14:41;;;;;;;;;;;;;;;;;;5000686;28;25150;-75
2021/12/13 15:17:12;;;;;;;;;;;;;;;;;;5004940;28;20311;-75
2021/12/13 15:19:47;;;;;;;;;;;;;;;;;;4999823;28;19917;-76
2021/12/13 15:22:14;;;;;;;;;;;;;;;;;;4998398;28;20286;-75
2021/12/13 15:24:41;;;;;;;;;;;;;;;;;;4997757;28;20345;-74
2021/12/13 15:27:08;;;;;;;453.95;269.45;;;;;;;;;;5020782;28;20290;-74
2021/12/13 15:29:34;;;;;;;;;;;;;;;;;;4995957;28;20025;-74
2021/12/13 15:32:07;;;;;;;455.88;268.42;;;;;;;;;;5008032;28;20229;-74
2021/12/13 15:34:44;;;;;;;458.20;271.20;;;;;;;;;;4998779;28;20034;-75
2021/12/13 15:37:29;;;;;;;456.93;272.17;;;;;;;;;;5004498;28;20026;-75
2021/12/13 15:40:13;;;;;;;455.65;268.05;;;;;;;;;;5020761;28;20038;-75
2021/12/13 15:42:42;;;;;;;455.40;274.70;;;;;;;;;;5004410;28;24072;-75
2021/12/13 15:45:08;;;;;;;;;;;;;;;;;;5007839;28;19913;-75
2021/12/13 15:50:31;;;;;;;452.10;271.60;;;;;;;;;;5002500;28;20044;-75
2021/12/13 15:53:05;;;;;;;453.92;267.77;;;;;;;;;;5007842;28;20077;-75
2021/12/13 15:55:40;;;;;;;458.80;271.00;;;;;;;;;;5003676;28;20042;-74
2021/12/13 15:58:21;;;;;;;456.13;271.67;;;;;;;;;;5005164;28;20057;-74
2021/12/13 16:00:47;;;;;;;;;;;;;;;;;;5003062;28;19952;-74
2021/12/13 16:03:13;;;;;;;;;;;;;;;;;;5003101;28;20055;-75
2021/12/13 16:05:39;;;;;;;;;;;;;;;;;;4996600;28;25073;-75
2021/12/13 16:08:05;;;;;;;;;;;;;;;;;;5005150;28;19928;-75
2021/12/13 16:10:32;;;;;;;;;;;;;;;;;;5008514;28;19953;-74
2021/12/13 16:12:58;;;;;;;;;;;;;;;;;;5013456;28;19968;-74
2021/12/13 16:15:25;;;;;;;;;;;;;;;;;;5000115;28;19924;-75
2021/12/13 16:18:06;;;;;;;;;;;;;;;;;;4999543;28;24091;-74
2021/12/13 16:20:32;;;;;;;;;;;;;;;;;;5002334;28;19909;-74
2021/12/13 16:22:58;;;;;;;;;;;;;;;;;;5003856;28;19921;-75
2021/12/13 16:25:25;;;;;;;;;;;;;;;;;;5001661;28;19917;-75
2021/12/13 16:27:51;;;;;;;;;;;;;;;;;;4997446;28;19936;-75
2021/12/13 16:30:17;;;;;;;;;;;;;;;;;;5003756;28;20367;-75
2021/12/13 16:32:42;;;;;;;;;;;;;;;;;;5021468;28;19965;-76
2021/12/13 16:35:08;;;;;;;;;;;;;;;;;;5001311;28;20380;-75
2021/12/13 16:37:34;;;;;;;;;;;;;;;;;;5003591;28;20090;-76
2021/12/13 16:40:00;;;;;;;;;;;;;;;;;;5008094;28;20453;-74
2021/12/13 16:42:26;;;;;;;;;;;;;;;;;;5007778;28;20371;-75
2021/12/13 16:44:52;;;;;;;;;;;;;;;;;;4995544;28;19953;-74
2021/12/13 16:47:19;;;;;;;;;;;;;;;;;;5001472;28;19917;-74
2021/12/13 16:49:46;;;;;;;;;;;;;;;;;;5001532;28;20007;-74
2021/12/13 16:52:12;;;;;;;;;;;;;;;;;;5001437;28;25131;-77
2021/12/13 16:54:38;;;;;;;;;;;;;;;;;;5021006;28;20407;-75
2021/12/13 16:57:05;;;;;;;;;;;;;;;;;;5003138;28;19993;-74
2021/12/13 16:59:31;;;;;;;;;;;;;;;;;;4999527;28;19913;-74
2021/12/13 17:02:14;;;;;;;;;;;;;;;;;;5003204;28;19913;-75
2021/12/13 17:09:50;;;;;;;;;;;;;;;;;;5010610;28;19921;-75
2021/12/13 17:12:16;;;;;;;;;;;;;;;;;;5010166;28;20341;-76
2021/12/13 17:14:42;;;;;;;;;;;;;;;;;;5008001;28;20000;-75
2021/12/13 17:17:08;;;;;;;;;;;;;;;;;;5017393;28;20357;-75
2021/12/13 17:19:34;;;;;;;;;;;;;;;;;;5009886;28;19918;-76
2021/12/13 17:22:00;;;;;;;;;;;;;;;;;;5014519;28;19909;-75
2021/12/13 17:24:27;;;;;;;;;;;;;;;;;;5018385;28;20008;-76
2021/12/13 17:26:53;;;;;;;;;;;;;;;;;;5004460;28;19936;-75
2021/12/13 17:29:19;;;;;;;;;;;;;;;;;;4986034;28;19944;-74
2021/12/13 17:31:47;;;;;;;;;;;;;;;;;;4989598;28;19917;-74
2021/12/13 17:34:34;;;;;;;;;;;;;;;;;;4988661;28;21197;-76
2021/12/13 17:36:59;;;;;;;;;;;;;;;;;;4992248;28;20174;-75
2021/12/13 17:39:25;;;;;;;;;;;;;;;;;;5001294;28;20239;-74
2021/12/13 17:42:02;;;;;;;;;;;;;;;;;;4996282;28;19913;-74
2021/12/13 17:44:48;;;;;;;;;;;;;;;;;;5002675;28;19916;-74
2021/12/13 17:47:40;;;;;;;;;;;;;;;;;;5005429;28;19919;-74
2021/12/13 17:50:25;;;;;;;;;;;;;;;;;;5002093;28;20029;-74
2021/12/13 17:52:52;;;;;;;;;;;;;;;;;;5019781;28;19921;-74
2021/12/13 17:55:40;;;;;;;;;;;;;;;;;;5008952;28;20012;-75
2021/12/13 17:58:06;;;;;;;;;;;;;;;;;;5016122;28;20001;-75
2021/12/13 18:00:33;;;;;;;;;;;;;;;;;;4995244;28;20639;-76
2021/12/13 18:02:59;;;;;;;;;;;;;;;;;;5004353;28;20034;-75
2021/12/13 18:05:25;;;;;;;;;;;;;;;;;;5021914;28;19910;-74